createdAt,value
2022-08-30T00:01:01.332Z,101086.00
2022-08-30T00:03:28.007Z,101081.00
2022-08-30T00:05:56.371Z,101080.00
2022-08-30T00:08:23.352Z,101076.00
2022-08-30T00:10:51.177Z,101079.00
2022-08-30T00:13:19.089Z,101083.00
2022-08-30T00:15:46.485Z,101083.00
2022-08-30T00:18:13.330Z,101085.00
2022-08-30T00:20:40.297Z,101084.00
2022-08-30T00:23:06.956Z,101092.00
2022-08-30T00:25:33.682Z,101091.00
2022-08-30T00:28:00.400Z,101100.00
2022-08-30T00:30:26.930Z,101085.00
2022-08-30T00:32:54.085Z,101095.00
2022-08-30T00:35:21.421Z,101092.00
2022-08-30T00:37:49.978Z,101093.00
2022-08-30T00:40:17.967Z,101099.00
2022-08-30T00:42:44.713Z,101099.00
2022-08-30T00:45:23.082Z,101085.00
2022-08-30T00:47:49.921Z,101095.00
2022-08-30T00:50:19.509Z,101090.00
2022-08-30T00:52:48.408Z,101096.00
2022-08-30T00:55:16.747Z,101094.00
2022-08-30T00:57:44.568Z,101092.00
2022-08-30T01:00:12.854Z,101095.00
2022-08-30T01:02:39.438Z,101096.00
2022-08-30T01:05:08.428Z,101091.00
2022-08-30T01:07:35.095Z,101101.00
2022-08-30T01:10:04.037Z,101102.00
2022-08-30T01:12:30.744Z,101104.00
2022-08-30T01:14:57.961Z,101111.00
2022-08-30T01:17:25.739Z,101112.00
2022-08-30T01:20:13.348Z,101099.00
2022-08-30T01:22:49.387Z,101112.00
2022-08-30T01:25:28.035Z,101110.00
2022-08-30T01:28:04.955Z,101113.00
2022-08-30T01:30:32.429Z,101105.00
2022-08-30T01:33:01.528Z,101110.00
2022-08-30T01:35:28.454Z,101111.00
2022-08-30T01:37:55.785Z,101108.00
2022-08-30T01:40:22.471Z,101108.00
2022-08-30T01:42:50.044Z,101112.00
2022-08-30T01:45:16.646Z,101107.00
2022-08-30T01:47:43.363Z,101113.00
2022-08-30T01:50:10.752Z,101104.00
2022-08-30T01:52:37.824Z,101103.00
2022-08-30T01:55:05.414Z,101108.00
2022-08-30T01:57:32.133Z,101109.00
2022-08-30T01:59:58.704Z,101101.00
2022-08-30T02:02:27.416Z,101111.00
2022-08-30T02:04:55.943Z,101107.00
2022-08-30T02:07:23.985Z,101107.00
2022-08-30T02:09:51.466Z,101089.00
2022-08-30T02:12:18.122Z,101095.00
2022-08-30T02:14:44.734Z,101094.00
2022-08-30T02:17:13.865Z,101101.00
2022-08-30T02:19:40.713Z,101102.00
2022-08-30T02:22:07.331Z,101090.00
2022-08-30T02:24:34.175Z,101102.00
2022-08-30T02:27:00.770Z,101091.00
2022-08-30T02:29:27.677Z,101089.00
2022-08-30T02:31:54.191Z,101088.00
2022-08-30T02:34:20.890Z,101094.00
2022-08-30T02:36:47.524Z,101090.00
2022-08-30T02:39:15.004Z,101085.00
2022-08-30T02:41:42.385Z,101093.00
2022-08-30T02:44:09.931Z,101083.00
2022-08-30T02:46:37.167Z,101089.00
2022-08-30T02:49:29.939Z,101096.00
2022-08-30T02:51:50.540Z,101095.00
2022-08-30T02:54:19.960Z,101086.00
2022-08-30T02:56:47.872Z,101094.00
2022-08-30T02:59:15.189Z,101093.00
2022-08-30T03:01:42.231Z,101088.00
2022-08-30T03:04:09.324Z,101093.00
2022-08-30T03:06:36.151Z,101085.00
2022-08-30T03:09:02.701Z,101083.00
2022-08-30T03:11:29.570Z,101086.00
2022-08-30T03:13:56.307Z,101091.00
2022-08-30T03:16:23.019Z,101093.00
2022-08-30T03:18:49.681Z,101093.00
2022-08-30T03:21:16.980Z,101081.00
2022-08-30T03:23:44.170Z,101089.00
2022-08-30T03:26:13.158Z,101103.00
2022-08-30T03:28:39.668Z,101096.00
2022-08-30T03:31:06.767Z,101104.00
2022-08-30T03:33:33.257Z,101096.00
2022-08-30T03:35:59.757Z,101103.00
2022-08-30T03:38:26.277Z,101102.00
2022-08-30T03:40:52.809Z,101106.00
2022-08-30T03:43:19.365Z,101101.00
2022-08-30T03:45:46.190Z,101105.00
2022-08-30T03:48:12.963Z,101110.00
2022-08-30T03:50:40.489Z,101101.00
2022-08-30T03:53:07.574Z,101103.00
2022-08-30T03:55:34.278Z,101108.00
2022-08-30T03:58:00.801Z,101119.00
2022-08-30T04:00:27.481Z,101117.00
2022-08-30T04:02:53.985Z,101121.00
2022-08-30T04:05:20.930Z,101119.00
2022-08-30T04:07:47.432Z,101113.00
2022-08-30T04:10:14.078Z,101110.00
2022-08-30T04:12:40.700Z,101112.00
2022-08-30T04:15:09.447Z,101116.00
2022-08-30T04:17:36.204Z,101114.00
2022-08-30T04:20:04.187Z,101115.00
2022-08-30T04:22:30.743Z,101122.00
2022-08-30T04:24:57.252Z,101134.00
2022-08-30T04:27:23.820Z,101129.00
2022-08-30T04:29:50.516Z,101119.00
2022-08-30T04:32:17.092Z,101131.00
2022-08-30T04:34:43.698Z,101135.00
2022-08-30T04:37:10.327Z,101139.00
2022-08-30T04:39:37.198Z,101143.00
2022-08-30T04:42:04.162Z,101136.00
2022-08-30T04:44:32.119Z,101135.00
2022-08-30T04:47:11.541Z,101148.00
2022-08-30T04:49:38.240Z,101142.00
2022-08-30T04:52:06.314Z,101146.00
2022-08-30T04:54:32.874Z,101138.00
2022-08-30T04:57:00.839Z,101137.00
2022-08-30T04:59:27.462Z,101136.00
2022-08-30T05:01:54.026Z,101142.00
2022-08-30T05:04:20.559Z,101137.00
2022-08-30T05:06:47.396Z,101148.00
2022-08-30T05:09:14.101Z,101154.00
2022-08-30T05:11:40.677Z,101151.00
2022-08-30T05:14:07.241Z,101150.00
2022-08-30T05:16:33.914Z,101147.00
2022-08-30T05:19:00.753Z,101148.00
2022-08-30T05:21:28.675Z,101153.00
2022-08-30T05:23:57.765Z,101150.00
2022-08-30T05:26:28.871Z,101156.00
2022-08-30T05:28:55.609Z,101163.00
2022-08-30T05:31:30.517Z,101164.00
2022-08-30T05:33:57.692Z,101163.00
2022-08-30T05:36:26.798Z,101170.00
2022-08-30T05:38:54.818Z,101158.00
2022-08-30T05:41:22.829Z,101161.00
2022-08-30T05:43:57.065Z,101162.00
2022-08-30T05:46:24.361Z,101157.00
2022-08-30T05:48:51.625Z,101160.00
2022-08-30T05:51:20.970Z,101161.00
2022-08-30T05:53:49.575Z,101164.00
2022-08-30T05:56:21.650Z,101166.00
2022-08-30T05:58:52.224Z,101170.00
2022-08-30T06:01:25.533Z,101165.00
2022-08-30T06:03:54.814Z,101173.00
2022-08-30T06:06:21.855Z,101175.00
2022-08-30T06:08:49.110Z,101179.00
2022-08-30T06:11:19.297Z,101176.00
2022-08-30T06:13:46.692Z,101168.00
2022-08-30T06:16:15.153Z,101173.00
2022-08-30T06:18:41.721Z,101171.00
2022-08-30T06:21:12.175Z,101173.00
2022-08-30T06:23:41.127Z,101174.00
2022-08-30T06:26:07.972Z,101177.00
2022-08-30T06:28:34.686Z,101169.00
2022-08-30T06:31:01.270Z,101173.00
2022-08-30T06:33:27.827Z,101180.00
2022-08-30T06:35:59.064Z,101180.00
2022-08-30T06:38:26.928Z,101174.00
2022-08-30T06:40:53.446Z,101182.00
2022-08-30T06:43:20.809Z,101178.00
2022-08-30T06:45:47.539Z,101183.00
2022-08-30T06:48:14.040Z,101192.00
2022-08-30T06:50:42.119Z,101183.00
2022-08-30T06:53:09.421Z,101184.00
2022-08-30T06:55:37.297Z,101191.00
2022-08-30T06:58:04.126Z,101195.00
2022-08-30T07:00:31.136Z,101196.00
2022-08-30T07:02:58.100Z,101200.00
2022-08-30T07:05:24.742Z,101199.00
2022-08-30T07:07:54.637Z,101195.00
2022-08-30T07:10:21.670Z,101191.00
2022-08-30T07:12:48.969Z,101203.00
2022-08-30T07:15:19.592Z,101192.00
2022-08-30T07:18:04.759Z,101195.00
2022-08-30T07:20:40.491Z,101195.00
2022-08-30T07:23:10.550Z,101204.00
2022-08-30T07:25:47.152Z,101200.00
2022-08-30T07:28:15.607Z,101211.00
2022-08-30T07:30:42.604Z,101210.00
2022-08-30T07:33:09.479Z,101205.00
2022-08-30T07:35:37.338Z,101206.00
2022-08-30T07:38:04.240Z,101210.00
2022-08-30T07:40:30.956Z,101205.00
2022-08-30T07:42:58.860Z,101211.00
2022-08-30T07:45:25.463Z,101208.00
2022-08-30T07:47:52.193Z,101216.00
2022-08-30T07:50:18.778Z,101214.00
2022-08-30T07:52:45.283Z,101218.00
2022-08-30T07:55:11.867Z,101211.00
2022-08-30T07:57:38.374Z,101211.00
2022-08-30T08:00:06.218Z,101215.00
2022-08-30T08:02:40.569Z,101213.00
2022-08-30T08:05:08.258Z,101213.00
2022-08-30T08:07:35.335Z,101209.00
2022-08-30T08:10:02.385Z,101215.00
2022-08-30T08:12:30.017Z,101218.00
2022-08-30T08:14:56.589Z,101219.00
2022-08-30T08:17:23.215Z,101213.00
2022-08-30T08:19:49.863Z,101223.00
2022-08-30T08:22:23.693Z,101219.00
2022-08-30T08:24:50.367Z,101223.00
2022-08-30T08:27:17.124Z,101221.00
2022-08-30T08:29:43.797Z,101214.00
2022-08-30T08:32:11.063Z,101227.00
2022-08-30T08:34:41.984Z,101231.00
2022-08-30T08:37:11.734Z,101230.00
2022-08-30T08:39:39.227Z,101230.00
2022-08-30T08:42:12.947Z,101237.00
2022-08-30T08:44:53.010Z,101239.00
2022-08-30T08:47:40.418Z,101241.00
2022-08-30T08:50:25.999Z,101245.00
2022-08-30T08:53:36.143Z,101242.00
2022-08-30T08:56:12.201Z,101235.00
2022-08-30T08:58:48.101Z,101233.00
2022-08-30T09:01:17.895Z,101234.00
2022-08-30T09:03:55.874Z,101243.00
2022-08-30T09:06:45.071Z,101237.00
2022-08-30T09:09:13.096Z,101245.00
2022-08-30T09:11:40.887Z,101244.00
2022-08-30T09:14:14.855Z,101242.00
2022-08-30T09:17:02.580Z,101241.00
2022-08-30T09:19:34.584Z,101243.00
2022-08-30T09:22:11.477Z,101243.00
2022-08-30T09:24:49.875Z,101241.00
2022-08-30T09:27:37.674Z,101242.00
2022-08-30T09:30:11.400Z,101251.00
2022-08-30T09:32:44.912Z,101251.00
2022-08-30T09:35:13.639Z,101242.00
2022-08-30T09:37:56.892Z,101245.00
2022-08-30T09:40:38.971Z,101240.00
2022-08-30T09:43:18.236Z,101243.00
2022-08-30T09:46:10.653Z,101245.00
2022-08-30T09:48:44.886Z,101244.00
2022-08-30T09:51:11.623Z,101250.00
2022-08-30T09:54:16.504Z,101244.00
2022-08-30T09:57:04.440Z,101249.00
2022-08-30T10:00:09.128Z,101249.00
2022-08-30T10:02:58.055Z,101248.00
2022-08-30T10:05:30.973Z,101246.00
2022-08-30T10:08:51.341Z,101246.00
2022-08-30T10:11:18.183Z,101252.00
2022-08-30T10:14:07.697Z,101243.00
2022-08-30T10:17:11.236Z,101250.00
2022-08-30T10:20:13.860Z,101243.00
2022-08-30T10:22:58.741Z,101247.00
2022-08-30T10:25:31.323Z,101236.00
2022-08-30T10:28:14.419Z,101244.00
2022-08-30T10:30:45.535Z,101245.00
2022-08-30T10:33:17.605Z,101237.00
2022-08-30T10:35:50.405Z,101241.00
2022-08-30T10:38:22.362Z,101234.00
2022-08-30T10:41:13.588Z,101237.00
2022-08-30T10:43:42.985Z,101228.00
2022-08-30T10:46:16.505Z,101230.00
2022-08-30T10:48:47.578Z,101232.00
2022-08-30T10:51:25.134Z,101223.00
2022-08-30T10:53:56.628Z,101224.00
2022-08-30T10:56:26.245Z,101236.00
2022-08-30T10:58:54.479Z,101231.00
2022-08-30T11:01:58.721Z,101235.00
2022-08-30T11:04:40.598Z,101227.00
2022-08-30T11:07:22.248Z,101231.00
2022-08-30T11:10:07.327Z,101235.00
2022-08-30T11:12:50.372Z,101229.00
2022-08-30T11:15:23.397Z,101237.00
2022-08-30T11:17:57.432Z,101231.00
2022-08-30T11:20:40.831Z,101229.00
2022-08-30T11:23:26.406Z,101227.00
2022-08-30T11:25:59.519Z,101233.00
2022-08-30T11:28:35.071Z,101235.00
2022-08-30T11:31:04.623Z,101230.00
2022-08-30T11:33:44.938Z,101226.00
2022-08-30T11:36:37.401Z,101221.00
2022-08-30T11:39:12.920Z,101213.00
2022-08-30T11:41:45.581Z,101212.00
2022-08-30T11:44:28.721Z,101204.00
2022-08-30T11:47:06.421Z,101205.00
2022-08-30T11:50:17.972Z,101200.00
2022-08-30T11:53:17.857Z,101193.00
2022-08-30T11:55:54.345Z,101196.00
2022-08-30T11:58:35.969Z,101194.00
2022-08-30T12:01:49.683Z,101194.00
2022-08-30T12:04:21.366Z,101188.00
2022-08-30T12:07:00.223Z,101191.00
2022-08-30T12:09:26.938Z,101193.00
2022-08-30T12:12:04.663Z,101196.00
2022-08-30T12:14:48.825Z,101194.00
2022-08-30T12:18:15.449Z,101185.00
2022-08-30T12:20:52.990Z,101187.00
2022-08-30T12:23:44.328Z,101193.00
2022-08-30T12:26:27.258Z,101185.00
2022-08-30T12:29:17.697Z,101184.00
2022-08-30T12:31:46.483Z,101185.00
2022-08-30T12:34:30.275Z,101181.00
2022-08-30T12:37:10.746Z,101179.00
2022-08-30T12:39:40.448Z,101183.00
2022-08-30T12:42:32.157Z,101171.00
2022-08-30T12:45:02.298Z,101177.00
2022-08-30T12:47:34.084Z,101169.00
2022-08-30T12:50:01.243Z,101167.00
2022-08-30T12:52:34.616Z,101180.00
2022-08-30T12:55:17.217Z,101166.00
2022-08-30T12:58:00.563Z,101168.00
2022-08-30T13:00:29.766Z,101164.00
2022-08-30T13:02:59.145Z,101164.00
2022-08-30T13:05:48.209Z,101163.00
2022-08-30T13:08:25.274Z,101153.00
2022-08-30T13:11:08.224Z,101152.00
2022-08-30T13:13:45.606Z,101154.00
2022-08-30T13:16:18.968Z,101153.00
2022-08-30T13:18:46.594Z,101151.00
2022-08-30T13:21:32.395Z,101152.00
2022-08-30T13:24:04.812Z,101153.00
2022-08-30T13:26:34.795Z,101153.00
2022-08-30T13:29:08.737Z,101155.00
2022-08-30T13:31:37.187Z,101150.00
2022-08-30T13:34:05.031Z,101153.00
2022-08-30T13:36:37.660Z,101149.00
2022-08-30T13:39:05.174Z,101141.00
2022-08-30T13:41:34.413Z,101138.00
2022-08-30T13:44:13.069Z,101143.00
2022-08-30T13:46:42.671Z,101148.00
2022-08-30T13:52:19.882Z,101140.00
2022-08-30T13:54:50.001Z,101138.00
2022-08-30T13:57:53.594Z,101129.00
2022-08-30T14:00:09.573Z,101130.00
2022-08-30T14:02:44.324Z,101138.00
2022-08-30T14:05:37.712Z,101136.00
2022-08-30T14:08:02.083Z,101136.00
2022-08-30T14:10:31.526Z,101135.00
2022-08-30T14:13:07.967Z,101135.00
2022-08-30T14:15:38.720Z,101142.00
2022-08-30T14:18:10.227Z,101144.00
2022-08-30T14:20:39.727Z,101139.00
2022-08-30T14:23:14.945Z,101134.00
2022-08-30T14:25:42.421Z,101144.00
2022-08-30T14:28:09.608Z,101153.00
2022-08-30T14:30:39.669Z,101158.00
2022-08-30T14:33:12.315Z,101150.00
2022-08-30T14:35:40.427Z,101141.00
2022-08-30T14:38:11.168Z,101153.00
2022-08-30T14:40:38.392Z,101158.00
2022-08-30T14:43:05.180Z,101149.00
2022-08-30T14:45:31.900Z,101153.00
2022-08-30T14:48:09.253Z,101155.00
2022-08-30T14:50:39.501Z,101156.00
2022-08-30T14:53:07.017Z,101160.00
2022-08-30T14:55:35.018Z,101152.00
2022-08-30T14:58:02.544Z,101158.00
2022-08-30T15:00:37.489Z,101145.00
2022-08-30T15:03:04.818Z,101160.00
2022-08-30T15:05:32.638Z,101147.00
2022-08-30T15:08:00.335Z,101149.00
2022-08-30T15:10:27.618Z,101149.00
2022-08-30T15:12:54.666Z,101151.00
2022-08-30T15:15:22.366Z,101151.00
2022-08-30T15:17:49.882Z,101154.00
2022-08-30T15:20:20.069Z,101151.00
2022-08-30T15:22:47.370Z,101147.00
2022-08-30T15:25:14.532Z,101146.00
2022-08-30T15:27:41.087Z,101143.00
2022-08-30T15:30:08.489Z,101144.00
2022-08-30T15:32:37.744Z,101144.00
2022-08-30T15:35:05.434Z,101144.00
2022-08-30T15:37:34.904Z,101144.00
2022-08-30T15:40:04.647Z,101144.00
2022-08-30T15:42:33.666Z,101147.00
2022-08-30T15:45:00.231Z,101142.00
2022-08-30T15:47:26.768Z,101138.00
2022-08-30T15:50:01.977Z,101139.00
2022-08-30T15:52:30.492Z,101135.00
2022-08-30T15:54:57.634Z,101139.00
2022-08-30T15:57:24.389Z,101136.00
2022-08-30T15:59:51.157Z,101138.00
2022-08-30T16:02:17.822Z,101136.00
2022-08-30T16:04:44.857Z,101135.00
2022-08-30T16:07:13.312Z,101128.00
2022-08-30T16:09:40.535Z,101140.00
2022-08-30T16:12:08.456Z,101138.00
2022-08-30T16:14:36.593Z,101132.00
2022-08-30T16:17:03.540Z,101140.00
2022-08-30T16:19:31.656Z,101131.00
2022-08-30T16:21:58.452Z,101131.00
2022-08-30T16:24:25.866Z,101132.00
2022-08-30T16:26:53.223Z,101139.00
2022-08-30T16:29:20.153Z,101131.00
2022-08-30T16:31:47.569Z,101127.00
2022-08-30T16:34:16.894Z,101129.00
2022-08-30T16:36:44.590Z,101130.00
2022-08-30T16:39:15.690Z,101123.00
2022-08-30T16:41:44.752Z,101122.00
2022-08-30T16:44:11.712Z,101125.00
2022-08-30T16:46:41.419Z,101108.00
2022-08-30T16:49:09.034Z,101125.00
2022-08-30T16:51:36.606Z,101122.00
2022-08-30T16:54:07.323Z,101124.00
2022-08-30T16:56:34.354Z,101120.00
2022-08-30T16:59:02.829Z,101119.00
2022-08-30T17:01:35.491Z,101121.00
2022-08-30T17:04:02.597Z,101119.00
2022-08-30T17:06:29.160Z,101116.00
2022-08-30T17:08:55.917Z,101113.00
2022-08-30T17:11:23.838Z,101112.00
2022-08-30T17:13:50.937Z,101117.00
2022-08-30T17:16:22.547Z,101123.00
2022-08-30T17:18:54.155Z,101123.00
2022-08-30T17:21:21.115Z,101125.00
2022-08-30T17:23:49.913Z,101123.00
2022-08-30T17:26:16.839Z,101127.00
2022-08-30T17:28:43.685Z,101136.00
2022-08-30T17:31:15.613Z,101131.00
2022-08-30T17:33:45.498Z,101135.00
2022-08-30T17:36:12.724Z,101143.00
2022-08-30T17:38:40.061Z,101147.00
2022-08-30T17:41:11.911Z,101148.00
2022-08-30T17:43:38.664Z,101153.00
2022-08-30T17:46:11.482Z,101150.00
2022-08-30T17:48:39.112Z,101164.00
2022-08-30T17:51:06.938Z,101158.00
2022-08-30T17:53:34.613Z,101155.00
2022-08-30T17:56:01.455Z,101159.00
2022-08-30T17:58:28.008Z,101165.00
2022-08-30T18:01:14.214Z,101167.00
2022-08-30T18:03:42.188Z,101172.00
2022-08-30T18:06:13.406Z,101168.00
2022-08-30T18:08:40.403Z,101160.00
2022-08-30T18:11:07.364Z,101169.00
2022-08-30T18:13:37.274Z,101169.00
2022-08-30T18:16:04.255Z,101178.00
2022-08-30T18:18:32.194Z,101185.00
2022-08-30T18:20:59.178Z,101186.00
2022-08-30T18:23:27.114Z,101190.00
2022-08-30T18:26:00.444Z,101192.00
2022-08-30T18:28:28.738Z,101200.00
2022-08-30T18:30:56.865Z,101204.00
2022-08-30T18:33:25.523Z,101201.00
2022-08-30T18:35:53.396Z,101203.00
2022-08-30T18:38:23.534Z,101216.00
2022-08-30T18:40:51.738Z,101216.00
2022-08-30T18:43:18.463Z,101218.00
2022-08-30T18:45:51.283Z,101214.00
2022-08-30T18:48:19.338Z,101211.00
2022-08-30T18:50:46.730Z,101224.00
2022-08-30T18:53:14.055Z,101214.00
2022-08-30T18:55:55.499Z,101219.00
2022-08-30T18:58:22.733Z,101216.00
2022-08-30T19:00:49.526Z,101216.00
2022-08-30T19:03:18.341Z,101211.00
2022-08-30T19:05:45.804Z,101215.00
2022-08-30T19:08:13.646Z,101217.00
2022-08-30T19:10:41.192Z,101217.00
2022-08-30T19:13:08.363Z,101212.00
2022-08-30T19:15:36.170Z,101217.00
2022-08-30T19:18:16.811Z,101206.00
2022-08-30T19:20:45.289Z,101206.00
2022-08-30T19:23:12.435Z,101209.00
2022-08-30T19:25:40.338Z,101211.00
2022-08-30T19:28:15.870Z,101204.00
2022-08-30T19:30:43.645Z,101206.00
2022-08-30T19:33:11.514Z,101205.00
2022-08-30T19:35:50.278Z,101207.00
2022-08-30T19:38:17.940Z,101214.00
2022-08-30T19:40:44.575Z,101214.00
2022-08-30T19:43:11.311Z,101217.00
2022-08-30T19:45:38.505Z,101214.00
2022-08-30T19:48:05.398Z,101209.00
2022-08-30T19:50:32.008Z,101211.00
2022-08-30T19:52:58.609Z,101203.00
2022-08-30T19:55:28.709Z,101210.00
2022-08-30T19:57:56.959Z,101209.00
2022-08-30T20:00:26.064Z,101216.00
2022-08-30T20:02:52.597Z,101215.00
2022-08-30T20:05:31.793Z,101216.00
2022-08-30T20:07:58.702Z,101217.00
2022-08-30T20:10:26.057Z,101214.00
2022-08-30T20:12:52.681Z,101221.00
2022-08-30T20:15:23.515Z,101217.00
2022-08-30T20:18:14.180Z,101216.00
2022-08-30T20:20:36.982Z,101211.00
2022-08-30T20:23:04.836Z,101216.00
2022-08-30T20:25:31.571Z,101220.00
2022-08-30T20:27:59.298Z,101226.00
2022-08-30T20:30:26.059Z,101215.00
2022-08-30T20:32:53.944Z,101231.00
2022-08-30T20:35:22.717Z,101224.00
2022-08-30T20:37:50.682Z,101229.00
2022-08-30T20:40:17.831Z,101223.00
2022-08-30T20:42:45.584Z,101222.00
2022-08-30T20:45:14.914Z,101228.00
2022-08-30T20:47:42.933Z,101234.00
2022-08-30T20:50:13.493Z,101226.00
2022-08-30T20:52:41.305Z,101236.00
2022-08-30T20:55:08.786Z,101232.00
2022-08-30T20:57:35.485Z,101231.00
2022-08-30T21:00:02.792Z,101233.00
2022-08-30T21:02:29.521Z,101230.00
2022-08-30T21:04:56.138Z,101235.00
2022-08-30T21:07:22.973Z,101228.00
2022-08-30T21:09:50.285Z,101244.00
2022-08-30T21:12:16.843Z,101235.00
2022-08-30T21:14:43.383Z,101228.00
2022-08-30T21:17:12.928Z,101244.00
2022-08-30T21:19:43.649Z,101241.00
2022-08-30T21:22:10.890Z,101234.00
2022-08-30T21:24:37.652Z,101247.00
2022-08-30T21:27:04.460Z,101235.00
2022-08-30T21:29:33.063Z,101247.00
2022-08-30T21:31:59.626Z,101236.00
2022-08-30T21:34:26.165Z,101240.00
2022-08-30T21:36:52.674Z,101243.00
2022-08-30T21:39:24.796Z,101245.00
2022-08-30T21:41:54.442Z,101246.00
2022-08-30T21:44:23.947Z,101252.00
2022-08-30T21:46:52.153Z,101247.00
2022-08-30T21:49:21.139Z,101251.00
2022-08-30T21:51:48.303Z,101256.00
2022-08-30T21:54:16.175Z,101254.00
2022-08-30T21:56:44.500Z,101253.00
2022-08-30T21:59:12.164Z,101252.00
2022-08-30T22:01:40.903Z,101252.00
2022-08-30T22:04:08.429Z,101250.00
2022-08-30T22:06:36.693Z,101241.00
2022-08-30T22:09:07.407Z,101257.00
2022-08-30T22:11:34.982Z,101261.00
2022-08-30T22:14:02.480Z,101253.00
2022-08-30T22:16:32.301Z,101249.00
2022-08-30T22:18:59.032Z,101263.00
2022-08-30T22:21:28.646Z,101258.00
2022-08-30T22:23:56.308Z,101259.00
2022-08-30T22:26:24.022Z,101263.00
2022-08-30T22:28:52.002Z,101254.00
2022-08-30T22:31:19.590Z,101257.00
2022-08-30T22:33:47.900Z,101258.00
2022-08-30T22:36:21.292Z,101260.00
2022-08-30T22:38:48.755Z,101256.00
2022-08-30T22:41:17.598Z,101266.00
2022-08-30T22:43:44.617Z,101264.00
2022-08-30T22:46:11.741Z,101259.00
2022-08-30T22:48:42.192Z,101256.00
2022-08-30T22:51:09.885Z,101258.00
2022-08-30T22:53:36.540Z,101260.00
2022-08-30T22:56:15.004Z,101265.00
2022-08-30T22:58:41.647Z,101261.00
2022-08-30T23:01:08.257Z,101261.00
2022-08-30T23:03:35.743Z,101263.00
2022-08-30T23:06:03.330Z,101259.00
2022-08-30T23:08:29.846Z,101261.00
2022-08-30T23:10:57.915Z,101265.00
2022-08-30T23:13:24.967Z,101262.00
2022-08-30T23:15:51.747Z,101268.00
2022-08-30T23:18:18.293Z,101270.00
2022-08-30T23:20:45.482Z,101278.00
2022-08-30T23:23:30.627Z,101266.00
2022-08-30T23:26:19.244Z,101262.00
2022-08-30T23:29:04.339Z,101265.00
2022-08-30T23:31:49.475Z,101270.00
2022-08-30T23:34:34.584Z,101267.00
2022-08-30T23:37:19.513Z,101272.00
2022-08-30T23:40:05.003Z,101276.00
2022-08-30T23:42:50.248Z,101281.00
2022-08-30T23:45:35.564Z,101279.00
2022-08-30T23:48:20.791Z,101283.00
2022-08-30T23:51:05.992Z,101274.00
2022-08-30T23:53:51.142Z,101289.00
2022-08-30T23:56:36.306Z,101270.00
2022-08-30T23:59:21.663Z,101268.00
